Time;durP1;ratioP1;P1;durP2;ratioP2;P2;SDS_P1;SDS_P2;PMS_P1;PMS_P2;Temp;Humidity;BMP_temperature;BMP_pressure;BME280_temperature;BME280_humidity;BME280_pressure;Samples;Min_cycle;Max_cycle;Signal;HPM_P1;HPM_P2
2022/06/08 00:00:09;;;;;;;16.83;12.13;;;16.10;99.90;;;;;;5086329;28;20573;-79
2022/06/08 00:02:37;;;;;;;19.00;11.80;;;16.10;99.90;;;;;;5085759;28;20234;-78
2022/06/08 00:05:04;;;;;;;16.80;11.77;;;16.20;99.90;;;;;;5084004;28;20231;-79
2022/06/08 00:07:32;;;;;;;16.23;11.03;;;16.20;99.90;;;;;;5087161;28;20227;-80
2022/06/08 00:09:59;;;;;;;18.73;11.27;;;16.20;99.90;;;;;;5091917;28;20678;-79
2022/06/08 00:12:27;;;;;;;19.10;12.20;;;16.20;99.90;;;;;;5086292;28;20203;-79
2022/06/08 00:14:54;;;;;;;16.83;12.80;;;16.20;99.90;;;;;;5085156;28;20624;-79
2022/06/08 00:17:21;;;;;;;18.27;12.07;;;16.20;99.90;;;;;;5081933;28;20257;-78
2022/06/08 00:19:49;;;;;;;20.73;12.03;;;16.20;99.90;;;;;;5083827;28;20207;-79
2022/06/08 00:22:17;;;;;;;15.60;11.37;;;16.20;99.90;;;;;;5091788;28;20270;-79
2022/06/08 00:24:44;;;;;;;18.33;11.93;;;16.20;99.90;;;;;;5086390;28;20204;-78
2022/06/08 00:27:12;;;;;;;18.70;12.33;;;16.20;99.90;;;;;;5090458;28;20207;-79
2022/06/08 00:29:39;;;;;;;17.10;12.10;;;16.10;99.90;;;;;;5086012;28;20218;-79
2022/06/08 00:32:06;;;;;;;22.73;13.50;;;16.10;99.90;;;;;;5082751;28;20204;-78
2022/06/08 00:34:33;;;;;;;20.27;12.40;;;16.10;99.90;;;;;;5081578;28;20200;-80
2022/06/08 00:37:00;;;;;;;21.83;14.23;;;16.10;99.90;;;;;;5085220;28;20207;-79
2022/06/08 00:39:27;;;;;;;18.57;12.87;;;16.20;99.90;;;;;;5074063;28;20219;-79
2022/06/08 00:42:00;;;;;;;18.97;12.20;;;16.20;99.90;;;;;;5083805;28;20259;-78
2022/06/08 00:44:45;;;;;;;20.63;12.83;;;16.10;99.90;;;;;;5081553;28;20706;-79
2022/06/08 00:47:18;;;;;;;20.83;12.67;;;16.20;99.90;;;;;;5085457;28;20264;-79
2022/06/08 00:49:51;;;;;;;17.23;12.67;;;16.10;99.90;;;;;;5088547;28;20236;-79
2022/06/08 00:52:19;;;;;;;16.33;12.43;;;16.10;99.90;;;;;;5084828;28;20196;-80
2022/06/08 00:54:50;;;;;;;16.63;12.30;;;16.10;99.90;;;;;;5085349;28;20227;-80
2022/06/08 00:57:55;;;;;;;17.73;12.20;;;16.10;99.90;;;;;;5079263;28;20610;-78
2022/06/08 01:00:37;;;;;;;18.50;12.73;;;16.00;99.90;;;;;;5091053;28;20204;-79
2022/06/08 01:03:10;;;;;;;20.03;13.07;;;15.90;99.90;;;;;;5084578;28;20336;-78
2022/06/08 01:05:57;;;;;;;14.77;11.40;;;15.80;99.90;;;;;;5087164;28;20206;-79
2022/06/08 01:08:23;;;;;;;17.90;13.27;;;15.80;99.90;;;;;;5081803;28;20260;-78
2022/06/08 01:10:54;;;;;;;20.33;13.63;;;15.70;99.90;;;;;;5086244;28;20617;-79
2022/06/08 01:13:21;;;;;;;20.73;12.73;;;15.70;99.90;;;;;;5088172;28;20209;-80
2022/06/08 01:15:49;;;;;;;17.40;12.33;;;15.60;99.90;;;;;;5083159;28;20292;-80
2022/06/08 01:18:16;;;;;;;17.93;12.67;;;15.60;99.90;;;;;;5080844;28;20204;-79
2022/06/08 01:20:50;;;;;;;20.20;13.03;;;15.50;99.90;;;;;;5086045;28;20200;-80
2022/06/08 01:23:17;;;;;;;19.67;13.47;;;15.50;99.90;;;;;;5086643;28;20354;-79
2022/06/08 01:26:14;;;;;;;18.90;13.07;;;15.50;99.90;;;;;;5080755;28;20204;-81
2022/06/08 01:28:59;;;;;;;19.00;13.23;;;15.50;99.90;;;;;;5084997;28;20264;-79
2022/06/08 01:31:38;;;;;;;18.83;12.93;;;15.50;99.90;;;;;;5082912;28;20202;-79
2022/06/08 01:34:14;;;;;;;21.73;13.73;;;15.50;99.90;;;;;;5086704;28;20195;-78
2022/06/08 01:37:03;;;;;;;18.83;12.70;;;15.50;99.90;;;;;;5080460;28;20589;-79
2022/06/08 01:40:07;;;;;;;19.47;13.93;;;15.60;99.90;;;;;;5086772;28;20332;-79
2022/06/08 01:42:51;;;;;;;20.77;14.33;;;15.60;99.90;;;;;;5081059;28;20269;-79
2022/06/08 01:45:29;;;;;;;22.83;14.40;;;15.60;99.90;;;;;;5082355;28;20678;-79
2022/06/08 01:48:08;;;;;;;20.67;14.50;;;15.60;99.90;;;;;;5084816;28;20204;-79
2022/06/08 01:50:58;;;;;;;21.33;14.97;;;15.60;99.90;;;;;;5077431;28;20227;-80
2022/06/08 01:54:05;;;;;;;24.33;15.77;;;15.60;99.90;;;;;;5090230;28;20239;-80
2022/06/08 01:57:00;;;;;;;22.67;15.57;;;15.70;99.90;;;;;;5083172;28;20211;-79
2022/06/08 01:59:48;;;;;;;24.50;14.80;;;15.70;99.90;;;;;;5081976;28;20196;-80
2022/06/08 02:02:53;;;;;;;21.30;14.83;;;15.70;99.90;;;;;;5081816;28;20220;-78
2022/06/08 02:05:34;;;;;;;22.23;15.33;;;15.70;99.90;;;;;;5082131;28;20286;-79
2022/06/08 02:08:10;;;;;;;24.03;15.97;;;15.70;99.90;;;;;;5085970;28;20562;-80
2022/06/08 02:11:07;;;;;;;22.50;15.00;;;15.70;99.90;;;;;;5081987;28;20288;-79
2022/06/08 02:13:47;;;;;;;24.97;15.60;;;15.80;99.90;;;;;;5085721;28;20225;-79
2022/06/08 02:16:47;;;;;;;24.57;15.40;;;15.80;99.90;;;;;;5078805;28;20200;-79
2022/06/08 02:19:20;;;;;;;26.23;16.20;;;15.70;99.90;;;;;;5075857;28;20293;-79
2022/06/08 02:22:12;;;;;;;26.43;16.73;;;15.70;99.90;;;;;;5081415;28;20768;-78
2022/06/08 02:24:46;;;;;;;26.60;16.70;;;15.70;99.90;;;;;;5082731;28;20203;-79
2022/06/08 02:27:29;;;;;;;27.03;16.53;;;15.70;99.90;;;;;;5079173;28;20206;-79
2022/06/08 02:30:24;;;;;;;24.33;17.03;;;15.70;99.90;;;;;;5084857;28;20598;-78
2022/06/08 02:35:52;;;;;;;30.40;17.43;;;15.80;99.90;;;;;;5082191;28;20199;-79
2022/06/08 02:38:24;;;;;;;22.53;15.00;;;15.80;99.90;;;;;;5084649;28;20551;-79
2022/06/08 02:40:56;;;;;;;22.50;15.17;;;15.80;99.90;;;;;;5083208;28;20224;-79
2022/06/08 02:43:30;;;;;;;26.33;15.70;;;15.90;99.90;;;;;;5080688;28;20297;-79
2022/06/08 02:46:07;;;;;;;26.23;16.57;;;15.80;99.90;;;;;;5081386;28;20219;-79
2022/06/08 02:48:34;;;;;;;29.47;16.57;;;15.90;99.90;;;;;;5074196;28;20212;-80
2022/06/08 02:51:01;;;;;;;24.83;16.33;;;16.00;99.90;;;;;;5077866;28;20211;-80
2022/06/08 02:53:31;;;;;;;26.00;16.27;;;16.00;99.90;;;;;;5083389;28;21049;-79
2022/06/08 02:56:13;;;;;;;24.53;16.70;;;16.00;99.90;;;;;;5083216;28;20578;-79
2022/06/08 02:58:49;;;;;;;24.13;15.73;;;16.00;99.90;;;;;;5087529;28;20238;-79
2022/06/08 03:01:38;;;;;;;24.43;15.07;;;16.00;99.90;;;;;;5083966;28;20346;-78
2022/06/08 03:04:15;;;;;;;23.53;15.43;;;16.00;99.90;;;;;;5077483;28;20338;-78
2022/06/08 03:06:49;;;;;;;25.23;15.60;;;16.00;99.90;;;;;;5085206;28;20302;-80
2022/06/08 03:09:18;;;;;;;23.73;15.73;;;16.00;99.90;;;;;;5085677;28;20215;-79
2022/06/08 03:11:53;;;;;;;23.53;15.67;;;16.00;99.90;;;;;;5082775;28;20253;-79
2022/06/08 03:14:21;;;;;;;26.43;16.53;;;15.90;99.90;;;;;;5080355;28;20252;-79
2022/06/08 03:16:52;;;;;;;27.77;17.03;;;15.90;99.90;;;;;;5075508;28;20684;-80
2022/06/08 03:19:20;;;;;;;27.20;16.43;;;15.80;99.90;;;;;;5083257;28;20254;-79
2022/06/08 03:21:47;;;;;;;28.20;17.80;;;15.80;99.90;;;;;;5080008;28;20266;-80
2022/06/08 03:24:15;;;;;;;28.40;16.97;;;15.80;99.90;;;;;;5078664;28;20289;-80
2022/06/08 03:26:46;;;;;;;27.87;17.57;;;15.80;99.90;;;;;;5084161;28;20203;-78
2022/06/08 03:29:15;;;;;;;31.10;18.23;;;15.60;99.90;;;;;;5081800;28;21045;-80
2022/06/08 03:31:42;;;;;;;32.37;18.73;;;15.50;99.90;;;;;;5082580;28;20203;-79
2022/06/08 03:34:09;;;;;;;28.37;18.03;;;15.40;99.90;;;;;;5083854;28;20722;-80
2022/06/08 03:36:36;;;;;;;30.10;19.40;;;15.40;99.90;;;;;;5087538;28;20301;-80
2022/06/08 03:39:04;;;;;;;30.20;18.57;;;15.40;99.90;;;;;;5082695;28;20200;-80
2022/06/08 03:41:31;;;;;;;30.90;19.73;;;15.30;99.90;;;;;;5080418;28;20733;-79
2022/06/08 03:44:03;;;;;;;30.70;18.90;;;15.30;99.90;;;;;;5075235;28;20699;-80
2022/06/08 03:46:35;;;;;;;31.03;18.80;;;15.20;99.90;;;;;;5081084;28;20280;-79
2022/06/08 03:49:03;;;;;;;31.40;20.77;;;15.20;99.90;;;;;;5080210;28;20204;-80
2022/06/08 03:51:30;;;;;;;33.10;20.30;;;15.10;99.90;;;;;;5078506;28;20216;-80
2022/06/08 03:54:19;;;;;;;33.17;20.50;;;15.10;99.90;;;;;;5084967;28;20243;-78
2022/06/08 03:56:52;;;;;;;32.93;19.97;;;15.00;99.90;;;;;;5084458;28;20222;-80
2022/06/08 03:59:19;;;;;;;35.00;21.43;;;15.10;99.90;;;;;;5083150;28;20294;-78
2022/06/08 04:01:46;;;;;;;36.60;21.50;;;15.00;99.90;;;;;;5080453;28;20204;-79
2022/06/08 04:04:13;;;;;;;36.47;22.80;;;15.00;99.90;;;;;;5080021;28;20231;-79
2022/06/08 04:06:40;;;;;;;38.90;22.93;;;15.10;99.90;;;;;;5080352;28;20720;-79
2022/06/08 04:09:07;;;;;;;40.53;23.80;;;15.10;99.90;;;;;;5083020;28;20674;-79
2022/06/08 04:11:34;;;;;;;39.27;23.83;;;15.20;99.90;;;;;;5083167;28;20203;-77
2022/06/08 04:14:02;;;;;;;40.17;23.57;;;15.30;99.90;;;;;;5081069;28;20265;-80
2022/06/08 04:16:29;;;;;;;40.33;22.73;;;15.30;99.90;;;;;;5077306;28;20193;-80
2022/06/08 04:18:57;;;;;;;37.37;23.70;;;15.40;99.90;;;;;;5082622;28;20280;-79
2022/06/08 04:21:24;;;;;;;37.77;23.40;;;15.50;99.90;;;;;;5086101;28;20750;-78
2022/06/08 04:23:51;;;;;;;37.77;22.97;;;15.60;99.90;;;;;;5084047;28;20228;-79
2022/06/08 04:26:19;;;;;;;40.53;24.53;;;15.70;99.90;;;;;;5082578;28;20257;-79
2022/06/08 04:28:46;;;;;;;37.47;23.57;;;15.80;99.90;;;;;;5085207;28;20586;-79
2022/06/08 04:31:15;;;;;;;36.63;23.17;;;15.90;99.90;;;;;;5080473;28;20192;-81
2022/06/08 04:33:42;;;;;;;34.73;22.20;;;16.00;99.90;;;;;;5078538;28;20652;-78
2022/06/08 04:36:11;;;;;;;34.00;22.70;;;16.10;99.90;;;;;;5086256;28;20547;-78
2022/06/08 04:38:39;;;;;;;33.77;22.13;;;16.20;99.90;;;;;;5086205;28;20285;-79
2022/06/08 04:41:06;;;;;;;35.47;23.53;;;16.30;99.90;;;;;;5078227;28;20262;-79
2022/06/08 04:43:33;;;;;;;38.20;23.60;;;16.40;99.90;;;;;;5081283;28;20216;-80
2022/06/08 04:46:04;;;;;;;33.10;21.43;;;16.30;99.90;;;;;;5085566;28;20287;-79
2022/06/08 04:48:31;;;;;;;36.57;22.23;;;16.40;99.90;;;;;;5081493;28;20209;-79
2022/06/08 04:50:58;;;;;;;33.93;21.57;;;16.40;99.90;;;;;;5079744;28;20197;-79
2022/06/08 04:53:25;;;;;;;37.03;23.10;;;16.40;99.90;;;;;;5084959;28;20227;-78
2022/06/08 04:55:52;;;;;;;36.73;22.80;;;16.40;99.90;;;;;;5080815;28;20217;-78
2022/06/08 04:58:20;;;;;;;34.53;21.57;;;16.40;99.90;;;;;;5076351;28;20196;-79
2022/06/08 05:00:47;;;;;;;36.00;22.33;;;16.40;99.90;;;;;;5081053;28;20763;-79
2022/06/08 05:03:14;;;;;;;35.30;22.37;;;16.40;99.90;;;;;;5078527;28;20281;-80
2022/06/08 05:05:41;;;;;;;36.83;22.00;;;16.50;99.90;;;;;;5079090;28;20200;-78
2022/06/08 05:08:08;;;;;;;36.03;22.73;;;16.50;99.90;;;;;;5087288;28;20538;-80
2022/06/08 05:10:36;;;;;;;31.73;21.30;;;16.60;99.90;;;;;;5082929;28;20211;-80
2022/06/08 05:13:05;;;;;;;34.60;21.40;;;16.80;99.90;;;;;;5077345;28;20205;-79
2022/06/08 05:15:35;;;;;;;31.30;20.77;;;17.00;99.90;;;;;;5080891;28;20216;-80
2022/06/08 05:18:03;;;;;;;32.53;22.23;;;17.20;99.90;;;;;;5082981;28;20197;-79
2022/06/08 05:20:30;;;;;;;30.15;20.58;;;17.40;99.90;;;;;;5080405;28;20213;-79
2022/06/08 05:22:58;;;;;;;32.05;21.27;;;17.70;99.90;;;;;;5077733;28;20317;-79
2022/06/08 05:25:35;;;;;;;29.73;21.15;;;17.70;99.90;;;;;;5077748;28;20272;-79
2022/06/08 05:28:04;;;;;;;30.75;20.20;;;18.00;99.90;;;;;;5077531;28;20253;-81
2022/06/08 05:30:32;;;;;;;26.85;18.95;;;18.40;99.90;;;;;;5076325;28;20237;-79
2022/06/08 05:32:59;;;;;;;28.80;20.10;;;18.90;99.90;;;;;;5083088;28;20213;-79
2022/06/08 05:35:27;;;;;;;27.27;18.42;;;19.20;99.90;;;;;;5080926;28;20199;-78
2022/06/08 05:37:54;;;;;;;25.88;17.55;;;19.50;99.90;;;;;;5080345;28;20734;-79
2022/06/08 05:40:22;;;;;;;25.33;18.48;;;19.90;99.90;;;;;;5078809;28;20654;-78
2022/06/08 05:42:49;;;;;;;22.60;16.35;;;20.20;99.90;;;;;;5077492;28;20248;-79
2022/06/08 05:45:21;;;;;;;23.40;17.20;;;20.40;99.90;;;;;;5075874;28;20691;-80
2022/06/08 05:47:48;;;;;;;22.42;15.95;;;20.80;99.90;;;;;;5077146;28;20204;-80
2022/06/08 05:50:16;;;;;;;23.35;16.92;;;20.90;99.90;;;;;;5075044;28;20504;-80
2022/06/08 05:52:45;;;;;;;23.35;17.15;;;20.90;99.90;;;;;;5080394;28;20200;-78
2022/06/08 05:55:13;;;;;;;23.55;16.77;;;20.90;99.90;;;;;;5076103;28;20686;-79
2022/06/08 05:57:41;;;;;;;24.10;17.15;;;20.90;99.90;;;;;;5077729;28;20204;-78
2022/06/08 06:00:11;;;;;;;23.55;17.60;;;20.90;99.90;;;;;;5078690;28;20243;-78
2022/06/08 06:02:38;;;;;;;22.75;17.30;;;20.90;99.90;;;;;;5077528;28;20204;-79
2022/06/08 06:05:06;;;;;;;21.25;16.15;;;20.80;99.90;;;;;;5082270;28;20254;-78
2022/06/08 06:07:33;;;;;;;21.23;16.17;;;20.80;99.90;;;;;;5074470;28;20246;-79
2022/06/08 06:10:03;;;;;;;19.73;15.20;;;20.80;99.90;;;;;;5080878;28;20215;-78
2022/06/08 06:12:30;;;;;;;21.73;16.02;;;20.90;99.90;;;;;;5080336;28;20204;-79
2022/06/08 06:15:05;;;;;;;19.80;15.15;;;20.90;99.90;;;;;;5074276;28;20669;-78
2022/06/08 06:17:32;;;;;;;22.20;15.35;;;21.10;99.90;;;;;;5078703;28;20286;-78
2022/06/08 06:19:59;;;;;;;19.30;14.75;;;21.10;99.90;;;;;;5087808;28;20215;-78
2022/06/08 06:22:26;;;;;;;18.98;15.13;;;21.20;99.90;;;;;;5084128;28;20656;-78
2022/06/08 06:24:53;;;;;;;18.60;13.85;;;21.30;99.90;;;;;;5079780;28;20751;-78
2022/06/08 06:27:21;;;;;;;17.48;14.20;;;21.40;99.90;;;;;;5077794;28;20200;-77
2022/06/08 06:29:49;;;;;;;19.40;13.65;;;21.60;99.90;;;;;;5081255;28;20738;-78
2022/06/08 06:32:30;;;;;;;20.42;14.43;;;21.80;99.90;;;;;;5084625;28;20575;-79
2022/06/08 06:35:01;;;;;;;20.38;13.15;;;22.00;99.90;;;;;;5086743;28;20276;-80
2022/06/08 06:37:29;;;;;;;15.88;12.20;;;22.20;99.90;;;;;;5087120;28;20308;-77
2022/06/08 06:39:56;;;;;;;16.58;12.48;;;22.40;99.90;;;;;;5083056;28;20224;-79
2022/06/08 06:42:25;;;;;;;18.13;12.23;;;;;;;;;;5081561;28;20293;-78
2022/06/08 06:44:52;;;;;;;13.80;11.98;;;22.50;99.90;;;;;;5080951;28;20232;-80
2022/06/08 06:47:19;;;;;;;16.75;12.40;;;22.70;99.90;;;;;;5080005;28;20203;-79
2022/06/08 06:49:46;;;;;;;13.35;11.15;;;23.00;99.90;;;;;;5077736;28;20345;-79
2022/06/08 06:52:14;;;;;;;12.30;10.32;;;23.10;99.90;;;;;;5081177;28;20201;-79
2022/06/08 06:54:42;;;;;;;13.75;10.68;;;23.20;99.90;;;;;;5096032;28;20223;-80
2022/06/08 06:57:09;;;;;;;14.13;11.02;;;23.30;99.90;;;;;;5082154;28;20563;-79
2022/06/08 06:59:36;;;;;;;16.08;11.70;;;23.50;99.90;;;;;;5084873;28;20204;-79
2022/06/08 07:02:06;;;;;;;14.13;9.85;;;;;;;;;;5095660;28;20203;-79
2022/06/08 07:04:33;;;;;;;13.98;11.65;;;23.60;99.90;;;;;;5087709;28;20224;-78
2022/06/08 07:07:00;;;;;;;14.73;12.25;;;23.60;99.90;;;;;;5088621;28;20204;-82
2022/06/08 07:09:27;;;;;;;14.25;11.52;;;23.70;99.90;;;;;;5082787;28;20618;-83
2022/06/08 07:11:53;;;;;;;13.98;11.68;;;23.80;99.90;;;;;;5093243;28;20196;-84
2022/06/08 07:14:20;;;;;;;15.52;11.10;;;24.10;99.90;;;;;;5100899;28;20207;-82
2022/06/08 07:16:47;;;;;;;10.85;9.75;;;24.50;99.90;;;;;;5077715;28;20228;-80
2022/06/08 07:19:15;;;;;;;10.30;8.52;;;24.90;99.90;;;;;;5085370;28;20204;-83
2022/06/08 07:21:42;;;;;;;11.48;9.05;;;25.10;99.90;;;;;;5084770;28;20453;-81
2022/06/08 07:24:21;;;;;;;10.77;9.68;;;25.20;99.90;;;;;;5087438;28;20675;-82
2022/06/08 07:26:49;;;;;;;11.30;9.45;;;25.40;99.90;;;;;;5082690;28;20225;-82
2022/06/08 07:29:16;;;;;;;12.85;9.50;;;25.60;99.90;;;;;;5085114;28;20238;-84
2022/06/08 07:31:43;;;;;;;13.23;10.27;;;26.00;99.90;;;;;;5086055;28;20191;-85
2022/06/08 07:34:13;;;;;;;13.27;9.50;;;26.20;99.90;;;;;;5085926;28;20249;-81
2022/06/08 07:36:44;;;;;;;10.63;8.80;;;26.00;99.90;;;;;;5084289;28;20307;-78
2022/06/08 07:39:13;;;;;;;11.95;9.90;;;25.90;99.90;;;;;;5081437;28;20317;-80
2022/06/08 07:41:42;;;;;;;10.82;9.20;;;;;;;;;;5084190;28;20246;-79
2022/06/08 07:44:10;;;;;;;13.30;8.88;;;26.20;99.90;;;;;;5085067;28;20224;-79
2022/06/08 07:46:37;;;;;;;12.05;9.65;;;26.60;99.90;;;;;;5077589;28;20200;-80
2022/06/08 07:51:53;;;;;;;12.07;9.93;;;27.20;99.90;;;;;;5086721;28;20691;-79
2022/06/08 07:54:24;;;;;;;11.70;9.63;;;27.10;99.90;;;;;;5084542;28;20276;-80
2022/06/08 07:56:53;;;;;;;10.65;8.25;;;27.10;99.90;;;;;;5073670;28;20200;-79
2022/06/08 07:59:22;;;;;;;10.85;6.78;;;27.10;99.90;;;;;;5077806;28;20208;-79
2022/06/08 08:01:49;;;;;;;7.10;5.47;;;27.10;99.90;;;;;;5080340;28;20199;-80
2022/06/08 08:04:16;;;;;;;7.10;5.53;;;27.30;99.90;;;;;;5079450;28;20227;-79
2022/06/08 08:06:43;;;;;;;9.20;6.00;;;27.40;99.90;;;;;;5079980;28;20656;-79
2022/06/08 08:09:17;;;;;;;8.30;6.32;;;27.40;99.90;;;;;;5078579;28;20281;-79
2022/06/08 08:11:46;;;;;;;8.48;6.97;;;27.20;99.90;;;;;;5081811;28;20222;-79
2022/06/08 08:14:14;;;;;;;11.07;5.72;;;26.90;99.90;;;;;;5081758;28;20237;-79
2022/06/08 08:16:43;;;;;;;7.78;6.13;;;26.60;99.90;;;;;;5082137;28;20583;-79
2022/06/08 08:19:12;;;;;;;8.38;5.82;;;26.30;99.90;;;;;;5078499;28;20231;-79
2022/06/08 08:21:39;;;;;;;7.28;6.10;;;26.10;99.90;;;;;;5080101;28;20604;-80
2022/06/08 08:24:06;;;;;;;6.53;5.68;;;25.70;99.90;;;;;;5083089;28;20246;-80
2022/06/08 08:26:34;;;;;;;7.47;5.22;;;25.20;99.90;;;;;;5084882;28;20200;-80
2022/06/08 08:29:01;;;;;;;8.32;5.47;;;24.70;99.90;;;;;;5084176;28;20755;-80
2022/06/08 08:31:28;;;;;;;7.88;5.18;;;24.30;99.90;;;;;;5079831;28;20258;-79
2022/06/08 08:33:55;;;;;;;6.88;5.32;;;23.90;99.90;;;;;;5081762;28;20709;-80
2022/06/08 08:36:21;;;;;;;9.35;5.70;;;23.60;99.90;;;;;;5086708;28;20203;-79
2022/06/08 08:38:48;;;;;;;7.85;5.53;;;23.40;99.90;;;;;;5081054;28;20207;-79
2022/06/08 08:44:26;;;;;;;8.63;5.82;;;23.00;99.90;;;;;;5079548;28;20309;-81
2022/06/08 08:47:05;;;;;;;8.00;5.38;;;22.90;99.90;;;;;;5082423;28;20593;-80
2022/06/08 08:49:34;;;;;;;7.95;5.47;;;22.90;99.90;;;;;;5081888;28;20721;-80
2022/06/08 08:52:11;;;;;;;7.68;5.47;;;23.00;99.90;;;;;;5082680;28;20573;-79
2022/06/08 08:54:40;;;;;;;7.07;4.80;;;23.40;99.90;;;;;;5085382;28;20317;-78
2022/06/08 08:57:26;;;;;;;7.72;4.85;;;23.30;99.90;;;;;;5080739;28;20196;-80
2022/06/08 08:59:53;;;;;;;5.32;4.20;;;23.80;99.90;;;;;;5080070;28;20234;-79
2022/06/08 09:05:19;;;;;;;6.65;4.40;;;24.50;99.90;;;;;;5079801;28;20527;-79
2022/06/08 09:07:47;;;;;;;4.95;3.92;;;24.70;99.90;;;;;;5082581;28;20199;-80
2022/06/08 09:10:18;;;;;;;6.40;4.30;;;24.70;99.90;;;;;;5077372;28;20221;-81
2022/06/08 09:12:46;;;;;;;6.53;4.43;;;24.70;99.90;;;;;;5083761;28;20210;-81
2022/06/08 09:15:16;;;;;;;8.27;4.18;;;24.70;99.90;;;;;;5081065;28;20325;-80
2022/06/08 09:17:56;;;;;;;6.30;4.30;;;24.60;99.90;;;;;;5081838;28;20204;-81
2022/06/08 09:20:28;;;;;;;5.40;3.55;;;24.50;99.90;;;;;;5084343;28;20210;-81
2022/06/08 09:22:57;;;;;;;5.60;3.45;;;24.30;99.90;;;;;;5083065;28;20206;-78
2022/06/08 09:25:26;;;;;;;4.57;3.00;;;24.20;99.90;;;;;;5082214;28;20236;-80
2022/06/08 09:27:57;;;;;;;5.70;3.30;;;24.10;99.90;;;;;;5080966;28;20269;-79
2022/06/08 09:30:31;;;;;;;5.30;2.63;;;24.00;99.90;;;;;;5075681;28;20246;-79
2022/06/08 09:33:30;;;;;;;4.20;2.65;;;23.90;99.90;;;;;;5083582;28;20204;-80
2022/06/08 09:36:01;;;;;;;6.63;2.95;;;23.80;99.90;;;;;;5079443;28;20261;-80
2022/06/08 09:38:32;;;;;;;4.82;2.63;;;23.60;99.90;;;;;;5082557;28;20188;-80
2022/06/08 09:41:14;;;;;;;3.80;2.83;;;23.50;99.90;;;;;;5076761;28;20267;-80
2022/06/08 09:44:02;;;;;;;4.85;2.95;;;23.30;99.90;;;;;;5080489;28;20239;-80
2022/06/08 09:53:18;;;;;;;4.43;2.92;;;23.00;99.90;;;;;;5080473;28;20211;-79
2022/06/08 09:56:24;;;;;;;5.10;2.65;;;22.90;99.90;;;;;;5076032;28;20211;-79
2022/06/08 09:59:14;;;;;;;4.03;2.60;;;22.80;99.90;;;;;;5078059;28;20299;-80
2022/06/08 10:01:49;;;;;;;6.43;3.75;;;22.80;99.90;;;;;;5077547;28;20247;-80
2022/06/08 10:04:50;;;;;;;5.43;3.08;;;22.70;99.90;;;;;;5081063;28;20224;-80
2022/06/08 10:07:26;;;;;;;5.50;2.90;;;22.70;99.90;;;;;;5079794;28;20840;-81
2022/06/08 10:10:14;;;;;;;5.78;3.10;;;22.40;99.90;;;;;;5072337;28;20552;-80
2022/06/08 10:12:58;;;;;;;7.50;3.10;;;22.30;99.90;;;;;;5074720;28;20212;-80
2022/06/08 10:15:30;;;;;;;7.07;3.45;;;22.20;99.90;;;;;;5077032;28;20212;-82
2022/06/08 10:18:19;;;;;;;7.50;3.30;;;22.00;99.90;;;;;;5079441;28;20239;-80
2022/06/08 10:20:50;;;;;;;5.07;3.60;;;21.80;99.90;;;;;;5078462;28;20211;-79
2022/06/08 10:23:44;;;;;;;5.75;3.47;;;21.80;99.90;;;;;;5078970;28;20212;-81
2022/06/08 10:26:20;;;;;;;6.57;3.42;;;21.60;99.90;;;;;;5090116;28;20251;-79
2022/06/08 10:28:54;;;;;;;8.52;3.67;;;21.60;99.90;;;;;;5080318;28;20574;-81
2022/06/08 10:31:30;;;;;;;6.78;3.53;;;21.40;99.90;;;;;;5077145;28;20230;-80
2022/06/08 10:34:16;;;;;;;5.90;3.38;;;21.40;99.90;;;;;;5083784;28;20191;-79
2022/06/08 10:36:49;;;;;;;7.68;3.53;;;21.30;99.90;;;;;;5080107;28;20261;-80
2022/06/08 10:39:17;;;;;;;5.25;3.60;;;21.30;99.90;;;;;;5080664;28;20223;-80
2022/06/08 10:44:44;;;;;;;6.15;3.78;;;21.30;99.90;;;;;;5079147;28;20228;-80
2022/06/08 10:47:13;;;;;;;8.70;3.15;;;21.30;99.90;;;;;;5077638;28;20200;-78
2022/06/08 10:49:46;;;;;;;5.65;3.50;;;21.30;99.90;;;;;;5082350;28;20939;-80
2022/06/08 10:52:18;;;;;;;5.45;3.17;;;21.30;99.90;;;;;;5081228;28;20254;-81
2022/06/08 10:54:54;;;;;;;7.35;3.42;;;21.40;99.90;;;;;;5077789;28;20236;-81
2022/06/08 10:57:49;;;;;;;6.28;4.00;;;21.50;99.90;;;;;;5080680;28;20208;-80
2022/06/08 11:00:26;;;;;;;7.47;3.53;;;21.40;99.90;;;;;;5066726;28;20711;-80
2022/06/08 11:02:59;;;;;;;9.27;4.10;;;21.40;99.90;;;;;;5078888;28;20291;-82
2022/06/08 11:05:37;;;;;;;8.90;4.38;;;21.50;99.90;;;;;;5079524;28;20232;-81
2022/06/08 11:08:06;;;;;;;7.47;4.07;;;21.50;99.90;;;;;;5081588;28;20211;-80
2022/06/08 11:10:52;;;;;;;7.43;3.63;;;21.40;99.90;;;;;;5080254;28;20242;-80
2022/06/08 11:13:22;;;;;;;6.78;4.15;;;21.40;99.90;;;;;;5077550;28;20212;-80
2022/06/08 11:16:01;;;;;;;7.10;3.13;;;21.50;99.90;;;;;;5075872;28;20668;-79
2022/06/08 11:18:53;;;;;;;6.50;3.83;;;21.60;99.90;;;;;;5083663;28;20733;-80
2022/06/08 11:21:46;;;;;;;6.70;3.33;;;21.70;99.90;;;;;;5085141;28;20603;-81
2022/06/08 11:24:24;;;;;;;8.18;2.88;;;21.60;99.90;;;;;;5079577;28;20228;-80
2022/06/08 11:27:00;;;;;;;6.07;2.92;;;21.70;99.90;;;;;;5070144;28;20630;-80
2022/06/08 11:29:30;;;;;;;5.47;2.45;;;21.70;99.90;;;;;;5074602;28;20208;-80
2022/06/08 11:31:57;;;;;;;6.63;2.75;;;21.80;99.90;;;;;;5074853;28;20338;-78
2022/06/08 11:34:46;;;;;;;7.28;2.60;;;21.80;99.90;;;;;;5085086;28;20575;-80
2022/06/08 11:37:38;;;;;;;7.30;2.55;;;21.80;99.90;;;;;;5087000;28;20629;-80
2022/06/08 11:40:28;;;;;;;7.00;2.42;;;22.00;99.90;;;;;;5077451;28;20696;-80
2022/06/08 11:43:15;;;;;;;5.72;2.08;;;22.00;99.90;;;;;;5077983;28;20200;-80
2022/06/08 11:45:44;;;;;;;5.63;1.65;;;21.80;99.90;;;;;;5081213;28;20699;-84
2022/06/08 11:48:17;;;;;;;3.92;1.70;;;21.80;99.90;;;;;;5085886;28;20245;-85
2022/06/08 11:50:48;;;;;;;5.13;1.70;;;21.70;99.90;;;;;;5078914;28;20945;-79
2022/06/08 11:53:39;;;;;;;8.10;1.88;;;21.80;99.90;;;;;;5076575;28;20308;-78
2022/06/08 11:56:21;;;;;;;6.20;1.98;;;21.90;99.90;;;;;;5074123;28;20297;-79
2022/06/08 11:59:10;;;;;;;4.15;1.88;;;21.80;99.90;;;;;;5080623;28;20193;-79
2022/06/08 12:01:49;;;;;;;9.02;2.40;;;21.70;99.90;;;;;;5079725;28;20266;-80
2022/06/08 12:04:20;;;;;;;4.82;2.08;;;21.60;99.90;;;;;;5082815;28;20769;-78
2022/06/08 12:06:49;;;;;;;4.32;1.70;;;21.50;99.90;;;;;;5078734;28;20219;-80
2022/06/08 12:09:21;;;;;;;4.20;1.80;;;21.50;99.90;;;;;;5083515;28;20301;-78
2022/06/08 12:11:53;;;;;;;6.60;2.00;;;21.40;99.90;;;;;;5080821;28;20272;-80
2022/06/08 12:14:30;;;;;;;6.13;1.77;;;21.40;99.90;;;;;;5080512;28;20250;-79
2022/06/08 12:17:26;;;;;;;3.78;1.80;;;21.50;99.90;;;;;;5078390;28;20204;-79
2022/06/08 12:19:58;;;;;;;4.75;1.77;;;21.50;99.90;;;;;;5077342;28;20204;-80
2022/06/08 12:22:30;;;;;;;4.93;1.80;;;21.50;99.90;;;;;;5086177;28;20307;-78
2022/06/08 12:25:09;;;;;;;6.97;2.35;;;21.60;99.90;;;;;;5080715;28;20223;-80
2022/06/08 12:27:44;;;;;;;3.90;1.48;;;21.60;99.90;;;;;;5086914;28;20581;-80
2022/06/08 12:30:26;;;;;;;4.53;1.73;;;21.50;99.90;;;;;;5081359;28;20208;-79
2022/06/08 12:32:58;;;;;;;4.28;1.65;;;21.50;99.90;;;;;;5075492;28;20212;-79
2022/06/08 12:35:31;;;;;;;3.15;1.50;;;21.40;99.90;;;;;;5080702;28;20219;-81
2022/06/08 12:38:26;;;;;;;3.92;1.60;;;21.40;99.90;;;;;;5077393;28;20207;-78
2022/06/08 12:41:14;;;;;;;4.93;1.75;;;21.30;99.90;;;;;;5071664;28;20209;-79
2022/06/08 12:43:47;;;;;;;3.72;1.50;;;21.20;99.90;;;;;;5081512;28;20204;-79
2022/06/08 12:46:34;;;;;;;8.02;2.60;;;21.20;99.90;;;;;;5073899;28;20750;-77
2022/06/08 12:49:12;;;;;;;5.88;1.73;;;20.90;99.90;;;;;;5077310;28;20258;-78
2022/06/08 12:51:43;;;;;;;6.47;1.98;;;20.80;99.90;;;;;;5084420;28;20200;-79
2022/06/08 12:54:15;;;;;;;4.20;2.03;;;20.60;99.90;;;;;;5083454;28;20663;-78
2022/06/08 12:56:44;;;;;;;4.10;2.42;;;20.40;99.90;;;;;;5079289;28;20204;-81
2022/06/08 12:59:12;;;;;;;5.88;2.08;;;20.30;99.90;;;;;;5087529;28;20200;-80
2022/06/08 13:01:41;;;;;;;5.68;2.00;;;20.20;99.90;;;;;;5082107;28;20249;-81
2022/06/08 13:04:08;;;;;;;4.55;1.92;;;20.00;99.90;;;;;;5088651;28;20196;-81
2022/06/08 13:06:35;;;;;;;5.55;2.10;;;19.90;99.90;;;;;;5085803;28;20235;-80
2022/06/08 13:09:02;;;;;;;5.15;2.38;;;19.90;99.90;;;;;;5086786;28;20280;-80
2022/06/08 13:11:29;;;;;;;6.32;2.10;;;19.90;99.90;;;;;;5073751;28;20649;-81
2022/06/08 13:13:57;;;;;;;3.88;1.80;;;20.00;99.90;;;;;;5079323;28;20231;-82
2022/06/08 13:16:28;;;;;;;5.78;1.90;;;20.10;99.90;;;;;;5073935;28;20211;-81
2022/06/08 13:18:56;;;;;;;3.78;2.20;;;20.00;99.90;;;;;;5082978;28;20561;-81
2022/06/08 13:21:25;;;;;;;4.63;2.00;;;19.90;99.90;;;;;;5082040;28;20273;-78
2022/06/08 13:23:52;;;;;;;6.47;2.50;;;19.80;99.90;;;;;;5080269;28;20214;-81
2022/06/08 13:26:27;;;;;;;2.65;1.85;;;19.70;99.90;;;;;;5080908;28;20227;-82